createdAt,value
2019-02-04T00:01:15.603Z,99.90
2019-02-04T00:03:45.191Z,99.90
2019-02-04T00:06:14.972Z,99.90
2019-02-04T00:08:44.484Z,99.90
2019-02-04T00:11:13.886Z,99.90
2019-02-04T00:13:43.391Z,99.90
2019-02-04T00:16:12.797Z,99.90
2019-02-04T00:18:42.315Z,99.90
2019-02-04T00:21:13.185Z,99.90
2019-02-04T00:23:42.697Z,99.90
2019-02-04T00:26:12.100Z,99.90
2019-02-04T00:28:41.539Z,99.90
2019-02-04T00:31:12.497Z,99.90
2019-02-04T00:33:42.002Z,99.90
2019-02-04T00:36:11.479Z,99.90
2019-02-04T00:38:40.919Z,99.90
2019-02-04T00:41:10.443Z,99.90
2019-02-04T00:43:39.882Z,99.90
2019-02-04T00:46:10.835Z,99.90
2019-02-04T00:48:40.353Z,99.90
2019-02-04T00:51:11.335Z,99.90
2019-02-04T00:53:40.775Z,99.90
2019-02-04T00:56:11.554Z,99.90
2019-02-04T00:58:41.006Z,99.90
2019-02-04T01:01:11.987Z,99.90
2019-02-04T01:03:41.499Z,99.90
2019-02-04T01:06:12.275Z,99.90
2019-02-04T01:08:41.786Z,99.90
2019-02-04T01:11:12.475Z,99.90
2019-02-04T01:13:41.990Z,99.90
2019-02-04T01:16:12.662Z,99.90
2019-02-04T01:18:42.176Z,99.90
2019-02-04T01:21:13.079Z,99.90
2019-02-04T01:23:42.490Z,99.90
2019-02-04T01:26:11.988Z,99.90
2019-02-04T01:28:41.470Z,99.90
2019-02-04T01:31:10.891Z,99.90
2019-02-04T01:33:40.402Z,99.90
2019-02-04T01:36:11.193Z,99.90
2019-02-04T01:38:40.640Z,99.90
2019-02-04T01:41:12.015Z,99.90
2019-02-04T01:43:41.602Z,99.90
2019-02-04T01:46:12.506Z,99.90
2019-02-04T01:48:41.983Z,99.90
2019-02-04T01:51:11.798Z,99.90
2019-02-04T01:53:41.281Z,99.90
2019-02-04T01:56:12.267Z,99.90
2019-02-04T01:58:41.738Z,99.90
2019-02-04T02:01:12.722Z,99.90
2019-02-04T02:03:42.203Z,99.90
2019-02-04T02:06:11.711Z,99.90
2019-02-04T02:08:41.595Z,99.90
2019-02-04T02:11:12.582Z,99.90
2019-02-04T02:13:42.065Z,99.90
2019-02-04T02:16:11.585Z,99.90
2019-02-04T02:18:40.983Z,99.90
2019-02-04T02:21:11.958Z,99.90
2019-02-04T02:23:41.443Z,99.90
2019-02-04T02:26:10.877Z,99.90
2019-02-04T02:28:40.327Z,99.90
2019-02-04T02:31:09.840Z,99.90
2019-02-04T02:33:39.324Z,99.90
2019-02-04T02:36:09.245Z,99.90
2019-02-04T02:38:38.748Z,99.90
2019-02-04T02:41:08.259Z,99.90
2019-02-04T02:43:37.698Z,99.90
2019-02-04T02:46:08.803Z,99.90
2019-02-04T02:48:38.202Z,99.90
2019-02-04T02:51:07.715Z,99.90
2019-02-04T02:53:37.341Z,99.90
2019-02-04T02:56:07.020Z,99.90
2019-02-04T02:58:36.490Z,99.90
2019-02-04T03:01:05.892Z,99.90
2019-02-04T03:03:35.524Z,99.90
2019-02-04T03:06:06.566Z,99.90
2019-02-04T03:08:36.093Z,99.90
2019-02-04T03:11:07.049Z,99.90
2019-02-04T03:13:36.553Z,99.90
2019-02-04T03:16:06.150Z,99.90
2019-02-04T03:18:35.958Z,99.90
2019-02-04T03:21:06.904Z,99.90
2019-02-04T03:23:36.421Z,99.90
2019-02-04T03:26:05.909Z,99.90
2019-02-04T03:28:35.424Z,99.90
2019-02-04T03:31:06.409Z,99.90
2019-02-04T03:33:35.912Z,99.90
2019-02-04T03:36:06.686Z,99.90
2019-02-04T03:38:36.130Z,99.90
2019-02-04T03:41:05.543Z,99.90
2019-02-04T03:43:34.985Z,99.90
2019-02-04T03:46:05.967Z,99.90
2019-02-04T03:48:35.464Z,99.90
2019-02-04T03:51:04.872Z,99.90
2019-02-04T03:53:34.315Z,99.90
2019-02-04T03:56:04.995Z,99.90
2019-02-04T03:58:34.839Z,99.90
2019-02-04T04:01:05.726Z,99.90
2019-02-04T04:03:35.170Z,99.90
2019-02-04T04:06:06.245Z,99.90
2019-02-04T04:08:35.756Z,99.90
2019-02-04T04:11:05.245Z,99.90
2019-02-04T04:13:34.747Z,99.90
2019-02-04T04:16:05.652Z,99.90
2019-02-04T04:18:35.193Z,99.90
2019-02-04T04:21:04.673Z,99.90
2019-02-04T04:23:34.179Z,99.90
2019-02-04T04:26:05.235Z,99.90
2019-02-04T04:28:34.762Z,99.90
2019-02-04T04:31:04.234Z,99.90
2019-02-04T04:33:33.743Z,99.90
2019-02-04T04:36:03.227Z,99.90
2019-02-04T04:38:32.640Z,99.90
2019-02-04T04:41:02.075Z,99.90
2019-02-04T04:43:31.483Z,99.90
2019-02-04T04:46:02.515Z,99.90
2019-02-04T04:48:31.986Z,99.90
2019-02-04T04:51:02.700Z,99.90
2019-02-04T04:53:32.679Z,99.90
2019-02-04T04:56:03.666Z,99.90
2019-02-04T04:58:33.067Z,99.90
2019-02-04T05:01:03.774Z,99.90
2019-02-04T05:03:33.178Z,99.90
2019-02-04T05:06:04.000Z,99.90
2019-02-04T05:08:33.484Z,99.90
2019-02-04T05:11:02.991Z,99.90
2019-02-04T05:13:32.405Z,99.90
2019-02-04T05:16:01.914Z,99.90
2019-02-04T05:18:38.219Z,99.90
2019-02-04T05:21:02.455Z,99.90
2019-02-04T05:23:31.862Z,99.90
2019-02-04T05:26:02.593Z,99.90
2019-02-04T05:28:32.067Z,99.90
2019-02-04T05:31:01.594Z,99.90
2019-02-04T05:33:31.079Z,99.90
2019-02-04T05:36:00.598Z,99.90
2019-02-04T05:38:30.105Z,99.90
2019-02-04T05:40:59.547Z,99.90
2019-02-04T05:43:28.958Z,99.90
2019-02-04T05:45:59.781Z,99.90
2019-02-04T05:48:29.772Z,99.90
2019-02-04T05:51:00.683Z,99.90
2019-02-04T05:53:30.171Z,99.90
2019-02-04T05:55:59.742Z,99.90
2019-02-04T05:58:29.121Z,99.90
2019-02-04T06:01:00.005Z,99.90
2019-02-04T06:03:29.429Z,99.90
2019-02-04T06:05:58.900Z,99.90
2019-02-04T06:08:28.315Z,99.90
2019-02-04T06:10:59.026Z,99.90
2019-02-04T06:13:28.477Z,99.90
2019-02-04T06:15:57.894Z,99.90
2019-02-04T06:18:27.347Z,99.90
2019-02-04T06:20:58.024Z,99.90
2019-02-04T06:23:27.475Z,99.90
2019-02-04T06:25:58.367Z,99.90
2019-02-04T06:28:27.815Z,99.90
2019-02-04T06:30:57.599Z,99.90
2019-02-04T06:33:27.054Z,99.90
2019-02-04T06:35:56.455Z,99.90
2019-02-04T06:38:25.909Z,99.90
2019-02-04T06:40:55.409Z,99.90
2019-02-04T06:43:24.923Z,99.90
2019-02-04T06:45:54.453Z,99.90
2019-02-04T06:48:23.890Z,99.90
2019-02-04T06:50:54.581Z,99.90
2019-02-04T06:53:24.023Z,99.90
2019-02-04T06:55:54.911Z,99.90
2019-02-04T06:58:24.764Z,99.90
2019-02-04T07:00:55.551Z,99.90
2019-02-04T07:03:24.991Z,99.90
2019-02-04T07:05:55.779Z,99.90
2019-02-04T07:08:25.227Z,99.90
2019-02-04T07:10:55.915Z,99.90
2019-02-04T07:13:25.439Z,99.90
2019-02-04T07:15:56.224Z,99.90
2019-02-04T07:18:25.676Z,99.90
2019-02-04T07:20:55.171Z,99.90
2019-02-04T07:23:24.611Z,99.90
2019-02-04T07:25:54.030Z,99.90
2019-02-04T07:28:23.483Z,99.90
2019-02-04T07:30:52.957Z,99.90
2019-02-04T07:33:22.798Z,99.90
2019-02-04T07:35:52.271Z,99.90
2019-02-04T07:38:21.776Z,99.90
2019-02-04T07:40:51.237Z,99.90
2019-02-04T07:43:20.678Z,99.90
2019-02-04T07:45:50.179Z,99.90
2019-02-04T07:48:19.667Z,99.90
2019-02-04T07:50:50.574Z,99.90
2019-02-04T07:53:19.996Z,99.90
2019-02-04T07:55:51.405Z,99.90
2019-02-04T07:58:20.869Z,99.90
2019-02-04T08:00:50.385Z,99.90
2019-02-04T08:03:19.786Z,99.90
2019-02-04T08:05:49.228Z,99.90
2019-02-04T08:08:18.631Z,99.90
2019-02-04T08:10:48.351Z,99.90
2019-02-04T08:13:17.758Z,99.90
2019-02-04T08:15:47.200Z,99.90
2019-02-04T08:18:16.603Z,99.90
2019-02-04T08:20:46.047Z,99.90
2019-02-04T08:23:15.492Z,99.90
2019-02-04T08:25:44.902Z,99.90
2019-02-04T08:28:14.343Z,99.90
2019-02-04T08:30:45.028Z,99.90
2019-02-04T08:33:14.547Z,99.90
2019-02-04T08:35:44.031Z,99.90
2019-02-04T08:38:13.511Z,99.90
2019-02-04T08:40:43.048Z,98.30
2019-02-04T08:43:12.559Z,97.70
2019-02-04T08:45:42.075Z,98.90
2019-02-04T08:48:11.656Z,99.80
2019-02-04T08:50:41.147Z,98.60
2019-02-04T08:53:10.668Z,99.40
2019-02-04T08:55:41.500Z,99.90
2019-02-04T08:58:12.727Z,99.60
2019-02-04T09:00:43.400Z,98.40
2019-02-04T09:03:12.842Z,97.80
2019-02-04T09:05:42.344Z,97.80
2019-02-04T09:08:11.854Z,96.80
2019-02-04T09:10:42.821Z,96.20
2019-02-04T09:13:12.304Z,92.50
2019-02-04T09:15:43.179Z,93.60
2019-02-04T09:18:12.696Z,92.50
2019-02-04T09:20:42.172Z,92.10
2019-02-04T09:23:11.684Z,93.20
2019-02-04T09:25:42.362Z,91.70
2019-02-04T09:28:11.888Z,90.60
2019-02-04T09:30:42.586Z,90.40
2019-02-04T09:33:12.118Z,91.50
2019-02-04T09:35:41.703Z,91.20
2019-02-04T09:38:11.527Z,90.50
2019-02-04T09:40:43.100Z,90.90
2019-02-04T09:43:12.558Z,94.40
2019-02-04T09:45:43.388Z,92.90
2019-02-04T09:48:16.102Z,92.10
2019-02-04T09:50:51.972Z,92.30
2019-02-04T09:53:21.447Z,91.00
2019-02-04T09:55:50.893Z,90.80
2019-02-04T09:58:20.317Z,91.40
2019-02-04T10:00:49.831Z,90.40
2019-02-04T10:03:19.315Z,91.50
2019-02-04T10:05:50.507Z,90.40
2019-02-04T10:08:21.475Z,84.80
2019-02-04T10:10:52.283Z,84.30
2019-02-04T10:13:21.761Z,90.40
2019-02-04T10:15:52.577Z,89.50
2019-02-04T10:18:22.387Z,90.30
2019-02-04T10:20:53.068Z,86.00
2019-02-04T10:23:22.563Z,81.90
2019-02-04T10:25:53.457Z,83.90
2019-02-04T10:28:22.903Z,90.10
2019-02-04T10:30:52.379Z,88.10
2019-02-04T10:33:21.882Z,84.10
2019-02-04T10:35:51.393Z,84.40
2019-02-04T10:38:20.869Z,85.20
2019-02-04T10:40:51.881Z,85.30
2019-02-04T10:43:21.457Z,85.50
2019-02-04T10:45:52.608Z,81.70
2019-02-04T10:48:22.131Z,83.90
2019-02-04T10:50:52.967Z,89.80
2019-02-04T10:53:22.445Z,85.00
2019-02-04T10:55:51.954Z,84.70
2019-02-04T10:58:21.485Z,79.30
2019-02-04T11:00:52.504Z,85.40
2019-02-04T11:03:22.165Z,84.20
2019-02-04T11:05:51.703Z,78.90
2019-02-04T11:08:21.118Z,77.70
2019-02-04T11:10:52.149Z,81.40
2019-02-04T11:13:21.601Z,79.90
2019-02-04T11:15:51.112Z,80.50
2019-02-04T11:18:20.603Z,82.50
2019-02-04T11:20:57.714Z,78.20
2019-02-04T11:23:21.249Z,76.20
2019-02-04T11:25:51.920Z,70.60
2019-02-04T11:28:21.712Z,72.70
2019-02-04T11:30:54.328Z,69.10
2019-02-04T11:33:23.753Z,67.50
2019-02-04T11:35:54.452Z,58.40
2019-02-04T11:38:23.972Z,59.20
2019-02-04T11:40:55.354Z,63.80
2019-02-04T11:43:24.994Z,59.90
2019-02-04T11:45:55.808Z,58.50
2019-02-04T11:48:25.375Z,57.30
2019-02-04T11:50:56.423Z,57.30
2019-02-04T11:53:32.892Z,56.90
2019-02-04T11:55:57.427Z,57.10
2019-02-04T11:58:26.931Z,57.00
2019-02-04T12:00:57.606Z,58.70
2019-02-04T12:03:27.055Z,59.10
2019-02-04T12:05:56.542Z,58.90
2019-02-04T12:08:26.368Z,56.00
2019-02-04T12:11:00.435Z,50.90
2019-02-04T12:13:29.953Z,52.80
2019-02-04T12:16:00.831Z,54.00
2019-02-04T12:18:30.345Z,54.20
2019-02-04T12:20:59.819Z,56.70
2019-02-04T12:23:29.258Z,52.30
2019-02-04T12:25:59.936Z,49.20
2019-02-04T12:28:29.460Z,50.60
2019-02-04T12:30:58.938Z,55.80
2019-02-04T12:33:28.451Z,56.20
2019-02-04T12:36:02.012Z,54.10
2019-02-04T12:38:30.923Z,52.80
2019-02-04T12:41:02.103Z,56.60
2019-02-04T12:43:31.607Z,58.60
2019-02-04T12:46:02.460Z,59.60
2019-02-04T12:48:31.968Z,57.50
2019-02-04T12:51:01.452Z,57.30
2019-02-04T12:53:31.359Z,56.00
2019-02-04T12:56:00.842Z,58.70
2019-02-04T12:58:30.663Z,59.50
2019-02-04T13:01:01.345Z,55.10
2019-02-04T13:03:31.653Z,58.40
2019-02-04T13:06:03.429Z,65.80
2019-02-04T13:08:32.942Z,59.90
2019-02-04T13:11:02.441Z,58.40
2019-02-04T13:13:31.955Z,61.40
2019-02-04T13:16:02.623Z,65.00
2019-02-04T13:18:32.131Z,66.70
2019-02-04T13:21:01.617Z,66.00
2019-02-04T13:23:31.123Z,69.70
2019-02-04T13:26:01.913Z,72.10
2019-02-04T13:28:31.419Z,81.40
2019-02-04T13:31:01.207Z,82.00
2019-02-04T13:33:30.818Z,86.40
2019-02-04T13:36:00.297Z,89.20
2019-02-04T13:38:29.767Z,92.00
2019-02-04T13:41:08.127Z,90.80
2019-02-04T13:43:31.771Z,93.00
2019-02-04T13:46:02.579Z,94.20
2019-02-04T13:48:32.059Z,97.50
2019-02-04T13:51:02.769Z,98.70
2019-02-04T13:53:32.246Z,99.90
2019-02-04T13:56:03.160Z,99.90
2019-02-04T13:58:33.040Z,99.90
2019-02-04T14:01:03.746Z,99.90
2019-02-04T14:03:33.226Z,99.90
2019-02-04T14:06:03.103Z,99.90
2019-02-04T14:08:32.588Z,99.90
2019-02-04T14:11:03.298Z,99.90
2019-02-04T14:13:32.779Z,99.90
2019-02-04T14:16:03.690Z,99.90
2019-02-04T14:18:33.161Z,99.90
2019-02-04T14:21:02.755Z,99.90
2019-02-04T14:23:32.236Z,99.90
2019-02-04T14:26:01.857Z,99.90
2019-02-04T14:28:31.593Z,99.90
2019-02-04T14:31:02.353Z,99.90
2019-02-04T14:33:31.763Z,99.90
2019-02-04T14:36:01.280Z,99.90
2019-02-04T14:38:30.863Z,99.90
2019-02-04T14:41:00.373Z,99.90
2019-02-04T14:43:31.296Z,99.90
2019-02-04T14:46:21.894Z,99.90
2019-02-04T14:49:11.466Z,99.90
2019-02-04T14:51:58.808Z,99.90
2019-02-04T14:54:38.237Z,99.90
2019-02-04T14:57:35.255Z,99.90
2019-02-04T15:00:29.391Z,99.90
2019-02-04T15:03:02.152Z,99.90
2019-02-04T15:05:37.831Z,99.90
2019-02-04T15:08:32.971Z,99.90
2019-02-04T15:11:08.874Z,99.90
2019-02-04T15:13:53.580Z,99.90
2019-02-04T15:16:29.052Z,99.90
2019-02-04T15:19:37.594Z,99.90
2019-02-04T15:22:44.179Z,99.90
2019-02-04T15:25:51.840Z,99.90
2019-02-04T15:28:27.343Z,99.90
2019-02-04T15:31:08.591Z,99.90
2019-02-04T15:33:53.115Z,99.90
2019-02-04T15:36:37.548Z,99.90
2019-02-04T15:39:25.424Z,99.90
2019-02-04T15:42:06.795Z,99.90
2019-02-04T15:45:06.878Z,99.90
2019-02-04T15:47:44.046Z,99.90
2019-02-04T15:50:37.658Z,99.90
2019-02-04T15:53:07.253Z,99.90
2019-02-04T15:55:40.034Z,99.90
2019-02-04T15:58:09.112Z,99.90
2019-02-04T16:00:38.601Z,99.90
2019-02-04T16:03:08.228Z,99.90
2019-02-04T16:05:37.710Z,99.90
2019-02-04T16:08:07.247Z,99.90
2019-02-04T16:10:36.723Z,99.90
2019-02-04T16:13:06.242Z,99.90
2019-02-04T16:15:37.016Z,99.90
2019-02-04T16:18:06.506Z,99.90
2019-02-04T16:20:35.995Z,99.90
2019-02-04T16:23:05.507Z,99.90
2019-02-04T16:25:34.987Z,99.90
2019-02-04T16:28:04.499Z,99.90
2019-02-04T16:30:35.361Z,99.90
2019-02-04T16:33:05.015Z,99.90
2019-02-04T16:35:35.709Z,99.90
2019-02-04T16:38:05.303Z,99.90
2019-02-04T16:40:35.114Z,99.90
2019-02-04T16:43:04.948Z,99.90
2019-02-04T16:45:36.054Z,99.90
2019-02-04T16:48:05.632Z,99.90
2019-02-04T16:50:35.164Z,99.90
2019-02-04T16:53:10.498Z,99.90
2019-02-04T16:55:35.953Z,99.90
2019-02-04T16:58:05.435Z,99.90
2019-02-04T17:00:36.416Z,99.90
2019-02-04T17:03:05.894Z,99.90
2019-02-04T17:05:36.819Z,99.90
2019-02-04T17:08:06.299Z,99.90
2019-02-04T17:10:35.856Z,99.90
2019-02-04T17:13:05.686Z,99.90
2019-02-04T17:15:36.595Z,99.90
2019-02-04T17:18:06.087Z,99.90
2019-02-04T17:20:36.912Z,99.90
2019-02-04T17:23:06.404Z,99.90
2019-02-04T17:25:37.119Z,99.90
2019-02-04T17:28:06.834Z,99.90
2019-02-04T17:30:37.557Z,99.90
2019-02-04T17:33:07.037Z,99.90
2019-02-04T17:35:37.943Z,99.90
2019-02-04T17:38:07.435Z,99.90
2019-02-04T17:40:37.028Z,99.90
2019-02-04T17:43:06.614Z,99.90
2019-02-04T17:45:37.835Z,99.90
2019-02-04T17:48:07.421Z,99.90
2019-02-04T17:50:38.289Z,99.90
2019-02-04T17:53:07.920Z,99.90
2019-02-04T17:55:38.858Z,99.90
2019-02-04T17:58:08.610Z,99.90
2019-02-04T18:00:43.771Z,99.90
2019-02-04T18:03:13.471Z,99.90
2019-02-04T18:05:44.402Z,99.90
2019-02-04T18:08:14.259Z,99.90
2019-02-04T18:10:45.135Z,99.90
2019-02-04T18:13:16.224Z,99.90
2019-02-04T18:15:47.273Z,99.90
2019-02-04T18:18:16.769Z,99.90
2019-02-04T18:20:47.976Z,99.90
2019-02-04T18:23:17.560Z,99.90
2019-02-04T18:25:47.187Z,99.90
2019-02-04T18:28:17.307Z,99.90
2019-02-04T18:30:46.986Z,99.90
2019-02-04T18:33:16.814Z,99.90
2019-02-04T18:35:48.033Z,99.90
2019-02-04T18:38:17.963Z,99.90
2019-02-04T18:40:49.471Z,99.90
2019-02-04T18:43:19.251Z,99.90
2019-02-04T18:45:48.727Z,99.90
2019-02-04T18:48:18.656Z,99.90
2019-02-04T18:50:48.742Z,99.90
2019-02-04T18:53:18.582Z,99.90
2019-02-04T18:55:48.648Z,99.90
2019-02-04T18:58:18.275Z,99.90
2019-02-04T19:00:49.397Z,99.90
2019-02-04T19:03:19.436Z,99.90
2019-02-04T19:05:50.739Z,99.90
2019-02-04T19:08:20.802Z,99.90
2019-02-04T19:10:52.235Z,99.90
2019-02-04T19:13:23.104Z,99.90
2019-02-04T19:15:53.071Z,99.90
2019-02-04T19:18:23.177Z,99.90
2019-02-04T19:20:53.402Z,99.90
2019-02-04T19:23:23.506Z,99.90
2019-02-04T19:25:53.382Z,99.90
2019-02-04T19:28:23.823Z,99.90
2019-02-04T19:30:59.846Z,99.90
2019-02-04T19:33:29.969Z,99.90
2019-02-04T19:36:01.151Z,99.90
2019-02-04T19:38:31.559Z,99.90
2019-02-04T19:41:02.358Z,99.90
2019-02-04T19:43:32.479Z,99.90
2019-02-04T19:46:02.694Z,99.90
2019-02-04T19:48:33.501Z,99.90
2019-02-04T19:51:05.190Z,99.90
2019-02-04T19:53:35.726Z,99.90
2019-02-04T19:56:07.274Z,99.90
2019-02-04T19:58:37.926Z,99.90
2019-02-04T20:01:09.708Z,99.90
2019-02-04T20:03:40.567Z,99.90
2019-02-04T20:06:10.887Z,99.90
2019-02-04T20:08:41.395Z,99.90
2019-02-04T20:11:12.563Z,99.90
2019-02-04T20:13:43.248Z,99.90
2019-02-04T20:16:13.499Z,99.90
2019-02-04T20:18:43.922Z,99.90
2019-02-04T20:21:15.699Z,99.90
2019-02-04T20:23:46.076Z,99.90
2019-02-04T20:26:17.303Z,99.90
2019-02-04T20:28:47.344Z,99.90
2019-02-04T20:31:17.523Z,99.90
2019-02-04T20:33:48.274Z,99.90
2019-02-04T20:36:19.578Z,99.90
2019-02-04T20:38:49.816Z,99.90
2019-02-04T20:41:21.183Z,99.90
2019-02-04T20:43:51.143Z,99.90
2019-02-04T20:46:22.492Z,99.90
2019-02-04T20:48:52.854Z,99.90
2019-02-04T20:51:24.145Z,99.90
2019-02-04T20:53:54.567Z,99.90
2019-02-04T20:56:24.618Z,99.90
2019-02-04T20:58:54.697Z,99.90
2019-02-04T21:01:26.069Z,99.90
2019-02-04T21:03:55.991Z,99.90
2019-02-04T21:06:25.631Z,99.90
2019-02-04T21:08:55.352Z,99.90
2019-02-04T21:11:26.510Z,99.90
2019-02-04T21:13:56.213Z,99.90
2019-02-04T21:16:26.059Z,99.90
2019-02-04T21:18:56.035Z,99.90
2019-02-04T21:21:25.655Z,99.90
2019-02-04T21:23:55.152Z,99.90
2019-02-04T21:26:24.767Z,99.90
2019-02-04T21:28:54.462Z,99.90
2019-02-04T21:31:25.786Z,99.90
2019-02-04T21:33:57.665Z,99.90
2019-02-04T21:36:27.279Z,99.90
2019-02-04T21:38:56.778Z,99.90
2019-02-04T21:41:26.292Z,99.90
2019-02-04T21:43:55.998Z,99.90
2019-02-04T21:46:25.563Z,99.90
2019-02-04T21:48:55.016Z,99.90
2019-02-04T21:51:25.747Z,99.90
2019-02-04T21:53:55.164Z,99.90
2019-02-04T21:56:25.878Z,99.90
2019-02-04T21:58:55.709Z,99.90
2019-02-04T22:01:25.225Z,99.90
2019-02-04T22:03:54.775Z,99.90
2019-02-04T22:06:24.322Z,99.90
2019-02-04T22:08:53.735Z,99.90
2019-02-04T22:11:23.260Z,99.90
2019-02-04T22:13:52.743Z,99.90
2019-02-04T22:16:23.667Z,99.90
2019-02-04T22:18:53.448Z,99.90
2019-02-04T22:21:24.667Z,99.90
2019-02-04T22:23:54.092Z,99.90
2019-02-04T22:26:24.935Z,99.90
2019-02-04T22:28:54.436Z,99.90
2019-02-04T22:31:23.888Z,99.90
2019-02-04T22:33:53.379Z,99.90
2019-02-04T22:36:22.866Z,99.90
2019-02-04T22:38:52.311Z,99.90
2019-02-04T22:41:21.736Z,99.90
2019-02-04T22:43:51.191Z,99.90
2019-02-04T22:46:20.599Z,99.90
2019-02-04T22:48:50.047Z,99.90
2019-02-04T22:51:21.023Z,99.90
2019-02-04T22:53:50.544Z,99.90
2019-02-04T22:56:20.026Z,99.90
2019-02-04T22:58:52.163Z,99.90
2019-02-04T23:01:31.864Z,99.90
2019-02-04T23:04:02.496Z,99.90
2019-02-04T23:06:31.969Z,99.90
2019-02-04T23:09:01.787Z,99.90
2019-02-04T23:11:32.751Z,99.90
2019-02-04T23:14:02.267Z,99.90
2019-02-04T23:16:33.253Z,99.90
2019-02-04T23:19:03.479Z,99.90
2019-02-04T23:21:34.362Z,99.90
2019-02-04T23:24:04.349Z,99.90
2019-02-04T23:26:35.308Z,99.90
2019-02-04T23:29:04.990Z,99.90
2019-02-04T23:31:34.482Z,99.90
2019-02-04T23:34:04.562Z,99.90
2019-02-04T23:36:34.463Z,99.90
2019-02-04T23:39:06.191Z,99.90
2019-02-04T23:41:37.144Z,99.90
2019-02-04T23:44:06.660Z,99.90
2019-02-04T23:46:37.620Z,99.90
2019-02-04T23:49:09.115Z,99.90
2019-02-04T23:51:38.603Z,99.90
2019-02-04T23:54:08.119Z,99.90
2019-02-04T23:56:38.806Z,99.90
2019-02-04T23:59:08.351Z,99.90
